sensor_id;sensor_type;location;lat;lon;timestamp;P1;durP1;ratioP1;P2;durP2;ratioP2
19507;SDS011;40157;42.566;27.526;2023-02-05T00:00:26;1.33;;;0.90;;
19507;SDS011;40157;42.566;27.526;2023-02-05T00:02:27;1.17;;;0.73;;
19507;SDS011;40157;42.566;27.526;2023-02-05T00:04:27;1.30;;;0.70;;
19507;SDS011;40157;42.566;27.526;2023-02-05T00:06:28;1.33;;;0.90;;
19507;SDS011;40157;42.566;27.526;2023-02-05T00:08:28;1.30;;;0.80;;
19507;SDS011;40157;42.566;27.526;2023-02-05T00:10:30;1.37;;;0.80;;
19507;SDS011;40157;42.566;27.526;2023-02-05T00:12:31;1.00;;;0.80;;
19507;SDS011;40157;42.566;27.526;2023-02-05T00:14:31;1.87;;;0.87;;
19507;SDS011;40157;42.566;27.526;2023-02-05T00:16:33;0.83;;;0.73;;
19507;SDS011;40157;42.566;27.526;2023-02-05T00:18:34;1.33;;;0.90;;
19507;SDS011;40157;42.566;27.526;2023-02-05T00:20:34;1.07;;;0.70;;
19507;SDS011;40157;42.566;27.526;2023-02-05T00:22:35;1.40;;;0.70;;
19507;SDS011;40157;42.566;27.526;2023-02-05T00:24:35;1.10;;;0.90;;
19507;SDS011;40157;42.566;27.526;2023-02-05T00:26:36;1.57;;;0.80;;
19507;SDS011;40157;42.566;27.526;2023-02-05T00:28:37;0.80;;;0.67;;
19507;SDS011;40157;42.566;27.526;2023-02-05T00:30:39;1.27;;;0.97;;
19507;SDS011;40157;42.566;27.526;2023-02-05T00:32:40;1.50;;;0.90;;
19507;SDS011;40157;42.566;27.526;2023-02-05T00:34:40;2.43;;;1.00;;
19507;SDS011;40157;42.566;27.526;2023-02-05T00:36:41;2.03;;;1.10;;
19507;SDS011;40157;42.566;27.526;2023-02-05T00:38:41;1.53;;;0.90;;
19507;SDS011;40157;42.566;27.526;2023-02-05T00:40:43;1.30;;;1.00;;
19507;SDS011;40157;42.566;27.526;2023-02-05T00:42:43;1.47;;;0.97;;
19507;SDS011;40157;42.566;27.526;2023-02-05T00:44:44;1.00;;;0.80;;
19507;SDS011;40157;42.566;27.526;2023-02-05T00:46:44;0.93;;;0.80;;
19507;SDS011;40157;42.566;27.526;2023-02-05T00:48:44;1.83;;;1.00;;
19507;SDS011;40157;42.566;27.526;2023-02-05T00:50:46;2.30;;;0.90;;
19507;SDS011;40157;42.566;27.526;2023-02-05T00:52:48;1.80;;;1.13;;
19507;SDS011;40157;42.566;27.526;2023-02-05T00:54:48;1.30;;;1.00;;
19507;SDS011;40157;42.566;27.526;2023-02-05T00:56:49;1.73;;;1.20;;
19507;SDS011;40157;42.566;27.526;2023-02-05T00:58:49;1.20;;;0.83;;
19507;SDS011;40157;42.566;27.526;2023-02-05T01:00:50;2.90;;;1.47;;
19507;SDS011;40157;42.566;27.526;2023-02-05T01:02:51;2.03;;;1.20;;
19507;SDS011;40157;42.566;27.526;2023-02-05T01:04:52;1.80;;;1.23;;
19507;SDS011;40157;42.566;27.526;2023-02-05T01:06:52;1.00;;;0.80;;
19507;SDS011;40157;42.566;27.526;2023-02-05T01:08:53;2.00;;;1.27;;
19507;SDS011;40157;42.566;27.526;2023-02-05T01:10:53;2.37;;;1.40;;
19507;SDS011;40157;42.566;27.526;2023-02-05T01:12:55;3.23;;;1.60;;
19507;SDS011;40157;42.566;27.526;2023-02-05T01:14:56;3.03;;;1.47;;
19507;SDS011;40157;42.566;27.526;2023-02-05T01:16:56;2.60;;;1.77;;
19507;SDS011;40157;42.566;27.526;2023-02-05T01:18:57;2.20;;;1.50;;
19507;SDS011;40157;42.566;27.526;2023-02-05T01:20:58;2.50;;;1.57;;
19507;SDS011;40157;42.566;27.526;2023-02-05T01:22:58;3.60;;;2.03;;
19507;SDS011;40157;42.566;27.526;2023-02-05T01:24:58;2.17;;;1.53;;
19507;SDS011;40157;42.566;27.526;2023-02-05T01:26:59;3.13;;;1.63;;
19507;SDS011;40157;42.566;27.526;2023-02-05T01:28:59;3.50;;;1.70;;
19507;SDS011;40157;42.566;27.526;2023-02-05T01:31:00;2.77;;;1.60;;
19507;SDS011;40157;42.566;27.526;2023-02-05T01:33:00;3.67;;;1.57;;
19507;SDS011;40157;42.566;27.526;2023-02-05T01:35:01;3.13;;;1.90;;
19507;SDS011;40157;42.566;27.526;2023-02-05T01:37:02;2.53;;;1.83;;
19507;SDS011;40157;42.566;27.526;2023-02-05T01:39:02;3.83;;;1.70;;
19507;SDS011;40157;42.566;27.526;2023-02-05T01:41:03;4.10;;;1.87;;
19507;SDS011;40157;42.566;27.526;2023-02-05T01:43:05;2.93;;;1.77;;
19507;SDS011;40157;42.566;27.526;2023-02-05T01:45:27;3.33;;;1.83;;
19507;SDS011;40157;42.566;27.526;2023-02-05T01:47:56;2.93;;;1.73;;
19507;SDS011;40157;42.566;27.526;2023-02-05T01:50:01;3.50;;;2.00;;
19507;SDS011;40157;42.566;27.526;2023-02-05T01:52:02;5.30;;;2.10;;
19507;SDS011;40157;42.566;27.526;2023-02-05T01:54:06;4.37;;;2.60;;
19507;SDS011;40157;42.566;27.526;2023-02-05T01:56:19;2.67;;;1.67;;
19507;SDS011;40157;42.566;27.526;2023-02-05T01:58:22;4.37;;;2.33;;
19507;SDS011;40157;42.566;27.526;2023-02-05T02:00:25;3.50;;;2.27;;
19507;SDS011;40157;42.566;27.526;2023-02-05T02:02:25;2.50;;;1.93;;
19507;SDS011;40157;42.566;27.526;2023-02-05T02:06:44;2.77;;;2.07;;
19507;SDS011;40157;42.566;27.526;2023-02-05T02:08:44;4.93;;;2.43;;
19507;SDS011;40157;42.566;27.526;2023-02-05T02:10:45;3.43;;;2.07;;
19507;SDS011;40157;42.566;27.526;2023-02-05T02:12:47;4.47;;;2.83;;
19507;SDS011;40157;42.566;27.526;2023-02-05T02:14:50;4.87;;;2.50;;
19507;SDS011;40157;42.566;27.526;2023-02-05T02:16:54;3.90;;;2.43;;
19507;SDS011;40157;42.566;27.526;2023-02-05T02:18:55;4.83;;;2.87;;
19507;SDS011;40157;42.566;27.526;2023-02-05T02:23:05;6.20;;;2.60;;
19507;SDS011;40157;42.566;27.526;2023-02-05T02:25:44;5.67;;;2.63;;
19507;SDS011;40157;42.566;27.526;2023-02-05T02:27:57;5.93;;;2.73;;
19507;SDS011;40157;42.566;27.526;2023-02-05T02:32:30;5.13;;;2.50;;
19507;SDS011;40157;42.566;27.526;2023-02-05T02:34:36;7.43;;;2.97;;
19507;SDS011;40157;42.566;27.526;2023-02-05T02:37:05;8.40;;;2.70;;
19507;SDS011;40157;42.566;27.526;2023-02-05T02:39:10;3.93;;;2.30;;
19507;SDS011;40157;42.566;27.526;2023-02-05T02:41:13;6.50;;;2.70;;
19507;SDS011;40157;42.566;27.526;2023-02-05T02:46:04;5.40;;;2.87;;
19507;SDS011;40157;42.566;27.526;2023-02-05T02:48:08;7.37;;;3.63;;
19507;SDS011;40157;42.566;27.526;2023-02-05T02:50:14;4.97;;;2.70;;
19507;SDS011;40157;42.566;27.526;2023-02-05T02:52:33;3.97;;;2.47;;
19507;SDS011;40157;42.566;27.526;2023-02-05T02:54:38;3.53;;;2.33;;
19507;SDS011;40157;42.566;27.526;2023-02-05T02:56:42;4.17;;;2.27;;
19507;SDS011;40157;42.566;27.526;2023-02-05T02:58:44;3.23;;;2.10;;
19507;SDS011;40157;42.566;27.526;2023-02-05T03:00:49;5.70;;;3.10;;
19507;SDS011;40157;42.566;27.526;2023-02-05T03:02:53;4.80;;;3.10;;
19507;SDS011;40157;42.566;27.526;2023-02-05T03:05:01;7.53;;;3.33;;
19507;SDS011;40157;42.566;27.526;2023-02-05T03:09:17;6.83;;;3.43;;
19507;SDS011;40157;42.566;27.526;2023-02-05T03:11:23;7.23;;;3.73;;
19507;SDS011;40157;42.566;27.526;2023-02-05T03:13:25;6.27;;;3.77;;
19507;SDS011;40157;42.566;27.526;2023-02-05T03:15:25;6.60;;;3.87;;
19507;SDS011;40157;42.566;27.526;2023-02-05T03:17:26;6.00;;;3.50;;
19507;SDS011;40157;42.566;27.526;2023-02-05T03:19:27;8.07;;;3.57;;
19507;SDS011;40157;42.566;27.526;2023-02-05T03:21:29;6.27;;;3.00;;
19507;SDS011;40157;42.566;27.526;2023-02-05T03:23:35;7.53;;;3.57;;
19507;SDS011;40157;42.566;27.526;2023-02-05T03:25:36;6.57;;;3.40;;
19507;SDS011;40157;42.566;27.526;2023-02-05T03:27:36;6.93;;;3.37;;
19507;SDS011;40157;42.566;27.526;2023-02-05T03:29:38;9.40;;;3.80;;
19507;SDS011;40157;42.566;27.526;2023-02-05T03:31:55;7.50;;;3.50;;
19507;SDS011;40157;42.566;27.526;2023-02-05T03:34:03;7.47;;;4.00;;
19507;SDS011;40157;42.566;27.526;2023-02-05T03:36:23;6.03;;;3.73;;
19507;SDS011;40157;42.566;27.526;2023-02-05T03:38:27;7.03;;;3.60;;
19507;SDS011;40157;42.566;27.526;2023-02-05T03:40:41;6.60;;;3.43;;
19507;SDS011;40157;42.566;27.526;2023-02-05T03:52:15;9.47;;;4.50;;
19507;SDS011;40157;42.566;27.526;2023-02-05T03:54:24;9.13;;;4.33;;
19507;SDS011;40157;42.566;27.526;2023-02-05T03:58:50;8.90;;;4.53;;
19507;SDS011;40157;42.566;27.526;2023-02-05T04:00:53;9.07;;;4.40;;
19507;SDS011;40157;42.566;27.526;2023-02-05T04:02:54;11.83;;;4.70;;
19507;SDS011;40157;42.566;27.526;2023-02-05T04:04:56;7.33;;;4.10;;
19507;SDS011;40157;42.566;27.526;2023-02-05T04:06:56;8.37;;;4.03;;
19507;SDS011;40157;42.566;27.526;2023-02-05T04:08:56;7.70;;;4.07;;
19507;SDS011;40157;42.566;27.526;2023-02-05T04:10:57;11.40;;;4.10;;
19507;SDS011;40157;42.566;27.526;2023-02-05T04:12:58;8.17;;;4.33;;
19507;SDS011;40157;42.566;27.526;2023-02-05T04:14:58;9.57;;;5.03;;
19507;SDS011;40157;42.566;27.526;2023-02-05T04:16:59;6.43;;;4.03;;
19507;SDS011;40157;42.566;27.526;2023-02-05T04:18:59;7.63;;;4.33;;
19507;SDS011;40157;42.566;27.526;2023-02-05T04:20:59;8.43;;;4.33;;
19507;SDS011;40157;42.566;27.526;2023-02-05T04:23:00;8.43;;;3.83;;
19507;SDS011;40157;42.566;27.526;2023-02-05T04:25:01;8.80;;;4.23;;
19507;SDS011;40157;42.566;27.526;2023-02-05T04:27:01;7.60;;;4.00;;
19507;SDS011;40157;42.566;27.526;2023-02-05T04:29:02;8.37;;;3.80;;
19507;SDS011;40157;42.566;27.526;2023-02-05T04:31:05;6.53;;;3.77;;
19507;SDS011;40157;42.566;27.526;2023-02-05T04:33:07;7.57;;;3.93;;
19507;SDS011;40157;42.566;27.526;2023-02-05T04:35:08;8.03;;;3.90;;
19507;SDS011;40157;42.566;27.526;2023-02-05T04:37:08;7.37;;;3.40;;
19507;SDS011;40157;42.566;27.526;2023-02-05T04:39:08;7.63;;;4.10;;
19507;SDS011;40157;42.566;27.526;2023-02-05T04:41:09;9.77;;;4.03;;
19507;SDS011;40157;42.566;27.526;2023-02-05T04:43:09;8.27;;;4.13;;
19507;SDS011;40157;42.566;27.526;2023-02-05T04:45:11;7.97;;;3.67;;
19507;SDS011;40157;42.566;27.526;2023-02-05T04:47:12;6.43;;;3.80;;
19507;SDS011;40157;42.566;27.526;2023-02-05T04:49:13;5.57;;;3.77;;
19507;SDS011;40157;42.566;27.526;2023-02-05T04:51:13;7.00;;;3.80;;
19507;SDS011;40157;42.566;27.526;2023-02-05T04:53:14;9.10;;;3.83;;
19507;SDS011;40157;42.566;27.526;2023-02-05T04:55:15;8.53;;;3.50;;
19507;SDS011;40157;42.566;27.526;2023-02-05T04:57:15;14.20;;;3.40;;
19507;SDS011;40157;42.566;27.526;2023-02-05T04:59:16;6.30;;;3.97;;
19507;SDS011;40157;42.566;27.526;2023-02-05T05:01:18;8.20;;;4.20;;
19507;SDS011;40157;42.566;27.526;2023-02-05T05:03:19;7.27;;;3.93;;
19507;SDS011;40157;42.566;27.526;2023-02-05T05:05:20;8.37;;;4.20;;
19507;SDS011;40157;42.566;27.526;2023-02-05T05:07:20;10.43;;;4.50;;
19507;SDS011;40157;42.566;27.526;2023-02-05T05:09:21;7.10;;;3.77;;
19507;SDS011;40157;42.566;27.526;2023-02-05T05:11:23;11.73;;;3.83;;
19507;SDS011;40157;42.566;27.526;2023-02-05T05:13:23;8.07;;;3.40;;
19507;SDS011;40157;42.566;27.526;2023-02-05T05:15:24;8.70;;;4.03;;
19507;SDS011;40157;42.566;27.526;2023-02-05T05:17:24;11.27;;;4.53;;
19507;SDS011;40157;42.566;27.526;2023-02-05T05:19:25;8.50;;;3.70;;
19507;SDS011;40157;42.566;27.526;2023-02-05T05:21:25;10.13;;;3.97;;
19507;SDS011;40157;42.566;27.526;2023-02-05T05:23:26;11.30;;;4.07;;
19507;SDS011;40157;42.566;27.526;2023-02-05T05:25:26;7.23;;;3.77;;
19507;SDS011;40157;42.566;27.526;2023-02-05T05:27:27;7.57;;;3.73;;
19507;SDS011;40157;42.566;27.526;2023-02-05T05:29:27;11.70;;;4.20;;
19507;SDS011;40157;42.566;27.526;2023-02-05T05:31:28;10.20;;;3.87;;
19507;SDS011;40157;42.566;27.526;2023-02-05T05:33:28;9.13;;;4.23;;
19507;SDS011;40157;42.566;27.526;2023-02-05T05:35:29;7.37;;;3.43;;
19507;SDS011;40157;42.566;27.526;2023-02-05T05:37:29;9.13;;;4.13;;
19507;SDS011;40157;42.566;27.526;2023-02-05T05:39:30;6.70;;;3.97;;
19507;SDS011;40157;42.566;27.526;2023-02-05T05:41:48;7.80;;;4.10;;
19507;SDS011;40157;42.566;27.526;2023-02-05T05:44:08;8.50;;;3.57;;
19507;SDS011;40157;42.566;27.526;2023-02-05T05:46:09;8.40;;;3.60;;
19507;SDS011;40157;42.566;27.526;2023-02-05T05:48:09;5.50;;;3.23;;
19507;SDS011;40157;42.566;27.526;2023-02-05T05:50:10;6.63;;;3.67;;
19507;SDS011;40157;42.566;27.526;2023-02-05T05:52:10;8.73;;;3.60;;
19507;SDS011;40157;42.566;27.526;2023-02-05T05:54:11;5.83;;;3.63;;
19507;SDS011;40157;42.566;27.526;2023-02-05T05:56:11;6.33;;;3.40;;
19507;SDS011;40157;42.566;27.526;2023-02-05T05:58:12;6.30;;;3.10;;
19507;SDS011;40157;42.566;27.526;2023-02-05T06:00:13;8.50;;;3.90;;
19507;SDS011;40157;42.566;27.526;2023-02-05T06:02:14;6.13;;;2.83;;
19507;SDS011;40157;42.566;27.526;2023-02-05T06:04:14;6.40;;;3.50;;
19507;SDS011;40157;42.566;27.526;2023-02-05T06:06:15;7.87;;;3.80;;
19507;SDS011;40157;42.566;27.526;2023-02-05T06:08:15;9.17;;;3.47;;
19507;SDS011;40157;42.566;27.526;2023-02-05T06:10:16;4.77;;;2.87;;
19507;SDS011;40157;42.566;27.526;2023-02-05T06:12:16;6.00;;;3.07;;
19507;SDS011;40157;42.566;27.526;2023-02-05T06:14:17;7.97;;;3.00;;
19507;SDS011;40157;42.566;27.526;2023-02-05T06:16:17;8.00;;;3.70;;
19507;SDS011;40157;42.566;27.526;2023-02-05T06:18:18;5.70;;;2.90;;
19507;SDS011;40157;42.566;27.526;2023-02-05T06:20:18;5.00;;;3.20;;
19507;SDS011;40157;42.566;27.526;2023-02-05T06:22:19;6.80;;;3.47;;
19507;SDS011;40157;42.566;27.526;2023-02-05T06:24:19;5.13;;;2.90;;
19507;SDS011;40157;42.566;27.526;2023-02-05T06:26:20;6.73;;;4.03;;
19507;SDS011;40157;42.566;27.526;2023-02-05T06:28:20;7.60;;;3.83;;
19507;SDS011;40157;42.566;27.526;2023-02-05T06:30:20;8.77;;;3.67;;
19507;SDS011;40157;42.566;27.526;2023-02-05T06:32:21;6.33;;;3.40;;
19507;SDS011;40157;42.566;27.526;2023-02-05T06:34:21;7.73;;;3.40;;
19507;SDS011;40157;42.566;27.526;2023-02-05T06:36:22;5.00;;;3.27;;
19507;SDS011;40157;42.566;27.526;2023-02-05T06:38:23;7.90;;;4.27;;
19507;SDS011;40157;42.566;27.526;2023-02-05T06:40:23;6.33;;;3.87;;
19507;SDS011;40157;42.566;27.526;2023-02-05T06:42:24;7.73;;;4.10;;
19507;SDS011;40157;42.566;27.526;2023-02-05T06:44:25;7.30;;;4.10;;
19507;SDS011;40157;42.566;27.526;2023-02-05T06:46:25;9.17;;;4.53;;
19507;SDS011;40157;42.566;27.526;2023-02-05T06:48:26;8.13;;;4.50;;
19507;SDS011;40157;42.566;27.526;2023-02-05T06:50:26;6.20;;;3.40;;
19507;SDS011;40157;42.566;27.526;2023-02-05T06:52:27;7.27;;;3.00;;
19507;SDS011;40157;42.566;27.526;2023-02-05T06:54:27;7.63;;;4.00;;
19507;SDS011;40157;42.566;27.526;2023-02-05T06:56:28;6.73;;;3.47;;
19507;SDS011;40157;42.566;27.526;2023-02-05T06:58:28;6.73;;;3.63;;
19507;SDS011;40157;42.566;27.526;2023-02-05T07:00:29;6.80;;;3.13;;
19507;SDS011;40157;42.566;27.526;2023-02-05T07:02:29;7.00;;;3.33;;
19507;SDS011;40157;42.566;27.526;2023-02-05T07:04:30;7.17;;;3.83;;
19507;SDS011;40157;42.566;27.526;2023-02-05T07:06:30;7.60;;;3.40;;
19507;SDS011;40157;42.566;27.526;2023-02-05T07:08:31;6.50;;;3.67;;
19507;SDS011;40157;42.566;27.526;2023-02-05T07:10:32;7.23;;;3.67;;
19507;SDS011;40157;42.566;27.526;2023-02-05T07:12:33;6.43;;;3.60;;
19507;SDS011;40157;42.566;27.526;2023-02-05T07:14:36;8.40;;;4.17;;
19507;SDS011;40157;42.566;27.526;2023-02-05T07:16:38;7.83;;;3.83;;
19507;SDS011;40157;42.566;27.526;2023-02-05T07:18:38;6.77;;;3.60;;
19507;SDS011;40157;42.566;27.526;2023-02-05T07:20:39;6.10;;;3.10;;
19507;SDS011;40157;42.566;27.526;2023-02-05T07:22:39;11.37;;;5.37;;
19507;SDS011;40157;42.566;27.526;2023-02-05T07:24:40;7.07;;;3.27;;
19507;SDS011;40157;42.566;27.526;2023-02-05T07:26:41;8.30;;;4.20;;
19507;SDS011;40157;42.566;27.526;2023-02-05T07:28:44;8.53;;;4.50;;
19507;SDS011;40157;42.566;27.526;2023-02-05T07:30:44;8.00;;;4.30;;
19507;SDS011;40157;42.566;27.526;2023-02-05T07:32:46;8.17;;;3.63;;
19507;SDS011;40157;42.566;27.526;2023-02-05T07:34:47;9.67;;;4.53;;
19507;SDS011;40157;42.566;27.526;2023-02-05T07:36:50;9.13;;;3.87;;
19507;SDS011;40157;42.566;27.526;2023-02-05T07:38:52;6.07;;;3.60;;
19507;SDS011;40157;42.566;27.526;2023-02-05T07:40:52;8.60;;;3.00;;
19507;SDS011;40157;42.566;27.526;2023-02-05T07:42:52;6.60;;;3.60;;
19507;SDS011;40157;42.566;27.526;2023-02-05T07:44:53;6.73;;;3.40;;
19507;SDS011;40157;42.566;27.526;2023-02-05T07:46:54;5.90;;;3.57;;
19507;SDS011;40157;42.566;27.526;2023-02-05T07:48:55;9.37;;;4.87;;
19507;SDS011;40157;42.566;27.526;2023-02-05T07:50:55;6.90;;;3.80;;
19507;SDS011;40157;42.566;27.526;2023-02-05T07:52:55;5.07;;;3.83;;
19507;SDS011;40157;42.566;27.526;2023-02-05T07:54:56;6.80;;;3.90;;
19507;SDS011;40157;42.566;27.526;2023-02-05T07:56:56;5.57;;;3.10;;
19507;SDS011;40157;42.566;27.526;2023-02-05T07:58:59;5.90;;;3.20;;
19507;SDS011;40157;42.566;27.526;2023-02-05T08:01:00;6.43;;;4.03;;
19507;SDS011;40157;42.566;27.526;2023-02-05T08:03:03;6.03;;;3.57;;
19507;SDS011;40157;42.566;27.526;2023-02-05T08:05:04;7.33;;;3.60;;
19507;SDS011;40157;42.566;27.526;2023-02-05T08:07:05;6.90;;;3.37;;
19507;SDS011;40157;42.566;27.526;2023-02-05T08:09:05;7.33;;;3.07;;
19507;SDS011;40157;42.566;27.526;2023-02-05T08:11:06;8.30;;;3.60;;
19507;SDS011;40157;42.566;27.526;2023-02-05T08:13:10;8.07;;;3.80;;
19507;SDS011;40157;42.566;27.526;2023-02-05T08:15:10;6.43;;;3.03;;
19507;SDS011;40157;42.566;27.526;2023-02-05T08:17:11;9.00;;;3.70;;
19507;SDS011;40157;42.566;27.526;2023-02-05T08:19:14;6.20;;;3.27;;
19507;SDS011;40157;42.566;27.526;2023-02-05T08:21:17;5.67;;;2.97;;
19507;SDS011;40157;42.566;27.526;2023-02-05T08:23:18;7.67;;;3.80;;
19507;SDS011;40157;42.566;27.526;2023-02-05T08:25:18;5.90;;;2.93;;
19507;SDS011;40157;42.566;27.526;2023-02-05T08:27:19;6.70;;;3.37;;
19507;SDS011;40157;42.566;27.526;2023-02-05T08:29:19;4.53;;;3.10;;
19507;SDS011;40157;42.566;27.526;2023-02-05T08:31:19;4.13;;;2.80;;
19507;SDS011;40157;42.566;27.526;2023-02-05T08:33:20;9.73;;;4.10;;
19507;SDS011;40157;42.566;27.526;2023-02-05T08:35:21;7.20;;;3.67;;
19507;SDS011;40157;42.566;27.526;2023-02-05T08:37:21;5.13;;;2.77;;
19507;SDS011;40157;42.566;27.526;2023-02-05T08:39:22;8.40;;;2.73;;
19507;SDS011;40157;42.566;27.526;2023-02-05T08:41:22;5.13;;;2.90;;
19507;SDS011;40157;42.566;27.526;2023-02-05T08:43:23;6.47;;;3.13;;
19507;SDS011;40157;42.566;27.526;2023-02-05T08:45:23;4.67;;;2.80;;
19507;SDS011;40157;42.566;27.526;2023-02-05T08:47:24;4.73;;;2.70;;
19507;SDS011;40157;42.566;27.526;2023-02-05T08:49:26;4.47;;;2.90;;
19507;SDS011;40157;42.566;27.526;2023-02-05T08:51:26;6.87;;;2.80;;
19507;SDS011;40157;42.566;27.526;2023-02-05T08:53:26;5.73;;;2.60;;
19507;SDS011;40157;42.566;27.526;2023-02-05T08:55:27;4.10;;;2.30;;
19507;SDS011;40157;42.566;27.526;2023-02-05T08:57:29;3.73;;;2.23;;
19507;SDS011;40157;42.566;27.526;2023-02-05T08:59:29;8.37;;;3.47;;
19507;SDS011;40157;42.566;27.526;2023-02-05T09:01:30;4.20;;;2.57;;
19507;SDS011;40157;42.566;27.526;2023-02-05T09:03:31;5.70;;;3.10;;
19507;SDS011;40157;42.566;27.526;2023-02-05T09:05:31;5.13;;;3.17;;
19507;SDS011;40157;42.566;27.526;2023-02-05T09:07:32;6.13;;;3.40;;
19507;SDS011;40157;42.566;27.526;2023-02-05T09:09:32;7.87;;;3.30;;
19507;SDS011;40157;42.566;27.526;2023-02-05T09:11:34;7.87;;;3.37;;
19507;SDS011;40157;42.566;27.526;2023-02-05T09:13:34;6.90;;;2.93;;
19507;SDS011;40157;42.566;27.526;2023-02-05T09:15:45;6.43;;;3.10;;
19507;SDS011;40157;42.566;27.526;2023-02-05T09:17:46;6.60;;;2.83;;
19507;SDS011;40157;42.566;27.526;2023-02-05T09:19:47;5.80;;;2.93;;
19507;SDS011;40157;42.566;27.526;2023-02-05T09:21:47;8.87;;;2.00;;
19507;SDS011;40157;42.566;27.526;2023-02-05T09:23:48;5.73;;;2.60;;
19507;SDS011;40157;42.566;27.526;2023-02-05T09:25:49;3.80;;;2.23;;
19507;SDS011;40157;42.566;27.526;2023-02-05T09:27:50;5.50;;;2.93;;
19507;SDS011;40157;42.566;27.526;2023-02-05T09:29:50;7.83;;;2.63;;
19507;SDS011;40157;42.566;27.526;2023-02-05T09:31:51;3.20;;;2.13;;
19507;SDS011;40157;42.566;27.526;2023-02-05T09:33:51;5.80;;;3.00;;
19507;SDS011;40157;42.566;27.526;2023-02-05T09:35:52;4.57;;;2.23;;
19507;SDS011;40157;42.566;27.526;2023-02-05T09:37:52;4.13;;;2.33;;
19507;SDS011;40157;42.566;27.526;2023-02-05T09:39:52;3.40;;;1.83;;
19507;SDS011;40157;42.566;27.526;2023-02-05T09:42:00;8.60;;;2.77;;
19507;SDS011;40157;42.566;27.526;2023-02-05T09:46:15;3.87;;;1.90;;
19507;SDS011;40157;42.566;27.526;2023-02-05T09:50:48;3.97;;;2.20;;
19507;SDS011;40157;42.566;27.526;2023-02-05T09:52:49;3.60;;;2.00;;
19507;SDS011;40157;42.566;27.526;2023-02-05T09:54:54;7.60;;;2.43;;
19507;SDS011;40157;42.566;27.526;2023-02-05T09:57:04;3.53;;;1.70;;
19507;SDS011;40157;42.566;27.526;2023-02-05T09:59:15;6.17;;;1.97;;
19507;SDS011;40157;42.566;27.526;2023-02-05T10:03:37;3.27;;;2.00;;
19507;SDS011;40157;42.566;27.526;2023-02-05T10:05:57;3.10;;;1.80;;
19507;SDS011;40157;42.566;27.526;2023-02-05T10:08:13;4.67;;;1.70;;
19507;SDS011;40157;42.566;27.526;2023-02-05T10:10:25;4.80;;;2.30;;
19507;SDS011;40157;42.566;27.526;2023-02-05T10:26:11;3.57;;;1.87;;
19507;SDS011;40157;42.566;27.526;2023-02-05T10:30:54;5.97;;;2.30;;
19507;SDS011;40157;42.566;27.526;2023-02-05T10:33:09;3.53;;;2.03;;
19507;SDS011;40157;42.566;27.526;2023-02-05T10:37:29;5.73;;;2.47;;
19507;SDS011;40157;42.566;27.526;2023-02-05T10:39:34;3.33;;;1.80;;
19507;SDS011;40157;42.566;27.526;2023-02-05T10:41:37;3.53;;;1.53;;
19507;SDS011;40157;42.566;27.526;2023-02-05T10:43:44;11.60;;;2.30;;
19507;SDS011;40157;42.566;27.526;2023-02-05T10:45:47;3.70;;;1.87;;
19507;SDS011;40157;42.566;27.526;2023-02-05T10:47:52;2.37;;;1.50;;
19507;SDS011;40157;42.566;27.526;2023-02-05T10:52:31;3.77;;;1.53;;
19507;SDS011;40157;42.566;27.526;2023-02-05T10:54:31;3.23;;;1.70;;
19507;SDS011;40157;42.566;27.526;2023-02-05T10:56:32;4.00;;;1.50;;
19507;SDS011;40157;42.566;27.526;2023-02-05T11:00:33;4.77;;;1.97;;
19507;SDS011;40157;42.566;27.526;2023-02-05T11:02:38;4.33;;;1.60;;
19507;SDS011;40157;42.566;27.526;2023-02-05T11:05:41;9.13;;;1.90;;
19507;SDS011;40157;42.566;27.526;2023-02-05T11:07:27;4.50;;;1.83;;
19507;SDS011;40157;42.566;27.526;2023-02-05T11:09:37;2.70;;;1.80;;
19507;SDS011;40157;42.566;27.526;2023-02-05T11:11:37;3.57;;;1.77;;
19507;SDS011;40157;42.566;27.526;2023-02-05T11:13:39;1.97;;;1.30;;
19507;SDS011;40157;42.566;27.526;2023-02-05T11:15:54;4.93;;;2.53;;
19507;SDS011;40157;42.566;27.526;2023-02-05T11:18:06;5.23;;;2.67;;
19507;SDS011;40157;42.566;27.526;2023-02-05T11:26:29;3.30;;;2.00;;
19507;SDS011;40157;42.566;27.526;2023-02-05T11:28:30;3.40;;;1.63;;
19507;SDS011;40157;42.566;27.526;2023-02-05T11:30:35;2.80;;;1.97;;
19507;SDS011;40157;42.566;27.526;2023-02-05T11:32:37;2.77;;;1.67;;
19507;SDS011;40157;42.566;27.526;2023-02-05T11:34:37;3.53;;;1.73;;
19507;SDS011;40157;42.566;27.526;2023-02-05T11:36:45;3.80;;;1.83;;
19507;SDS011;40157;42.566;27.526;2023-02-05T11:38:50;2.97;;;1.80;;
19507;SDS011;40157;42.566;27.526;2023-02-05T11:40:52;2.67;;;1.53;;
19507;SDS011;40157;42.566;27.526;2023-02-05T11:43:01;3.50;;;2.03;;
19507;SDS011;40157;42.566;27.526;2023-02-05T11:45:14;4.60;;;2.30;;
19507;SDS011;40157;42.566;27.526;2023-02-05T11:47:34;3.93;;;2.00;;
19507;SDS011;40157;42.566;27.526;2023-02-05T11:49:39;3.37;;;1.83;;
19507;SDS011;40157;42.566;27.526;2023-02-05T11:51:41;3.80;;;1.90;;
19507;SDS011;40157;42.566;27.526;2023-02-05T11:54:03;2.83;;;2.03;;
19507;SDS011;40157;42.566;27.526;2023-02-05T11:56:18;6.77;;;1.77;;
19507;SDS011;40157;42.566;27.526;2023-02-05T11:58:26;3.73;;;1.87;;
19507;SDS011;40157;42.566;27.526;2023-02-05T12:00:30;3.97;;;1.80;;
19507;SDS011;40157;42.566;27.526;2023-02-05T12:02:31;3.30;;;1.93;;
19507;SDS011;40157;42.566;27.526;2023-02-05T12:04:38;2.27;;;1.57;;
19507;SDS011;40157;42.566;27.526;2023-02-05T12:08:52;4.07;;;1.63;;
19507;SDS011;40157;42.566;27.526;2023-02-05T12:15:56;4.07;;;2.20;;
19507;SDS011;40157;42.566;27.526;2023-02-05T12:18:24;5.03;;;2.17;;
19507;SDS011;40157;42.566;27.526;2023-02-05T12:20:39;6.50;;;1.70;;
19507;SDS011;40157;42.566;27.526;2023-02-05T12:30:48;3.57;;;2.07;;
19507;SDS011;40157;42.566;27.526;2023-02-05T12:38:30;2.73;;;2.13;;
19507;SDS011;40157;42.566;27.526;2023-02-05T12:43:14;5.53;;;2.57;;
19507;SDS011;40157;42.566;27.526;2023-02-05T12:48:16;4.47;;;1.73;;
19507;SDS011;40157;42.566;27.526;2023-02-05T12:57:41;4.10;;;1.80;;
19507;SDS011;40157;42.566;27.526;2023-02-05T12:59:50;2.47;;;1.90;;
19507;SDS011;40157;42.566;27.526;2023-02-05T13:02:05;5.53;;;2.07;;
19507;SDS011;40157;42.566;27.526;2023-02-05T13:04:20;3.60;;;1.87;;
19507;SDS011;40157;42.566;27.526;2023-02-05T13:06:30;4.53;;;2.27;;
19507;SDS011;40157;42.566;27.526;2023-02-05T13:08:49;4.10;;;1.87;;
19507;SDS011;40157;42.566;27.526;2023-02-05T13:11:00;3.60;;;2.10;;
19507;SDS011;40157;42.566;27.526;2023-02-05T13:13:08;4.30;;;2.20;;
19507;SDS011;40157;42.566;27.526;2023-02-05T13:15:29;4.43;;;2.20;;
19507;SDS011;40157;42.566;27.526;2023-02-05T13:17:37;3.53;;;2.10;;
19507;SDS011;40157;42.566;27.526;2023-02-05T13:19:57;4.57;;;1.97;;
19507;SDS011;40157;42.566;27.526;2023-02-05T13:22:04;4.87;;;2.63;;
19507;SDS011;40157;42.566;27.526;2023-02-05T13:24:41;3.17;;;1.87;;
19507;SDS011;40157;42.566;27.526;2023-02-05T13:27:17;3.10;;;1.80;;
19507;SDS011;40157;42.566;27.526;2023-02-05T13:29:43;2.83;;;1.73;;
19507;SDS011;40157;42.566;27.526;2023-02-05T13:31:51;6.30;;;2.50;;
19507;SDS011;40157;42.566;27.526;2023-02-05T13:34:00;4.67;;;2.00;;
19507;SDS011;40157;42.566;27.526;2023-02-05T13:43:15;4.70;;;2.30;;
19507;SDS011;40157;42.566;27.526;2023-02-05T13:47:54;4.00;;;1.97;;
19507;SDS011;40157;42.566;27.526;2023-02-05T13:50:05;4.57;;;1.80;;
19507;SDS011;40157;42.566;27.526;2023-02-05T13:59:52;2.97;;;1.63;;
19507;SDS011;40157;42.566;27.526;2023-02-05T14:01:55;3.63;;;1.90;;
19507;SDS011;40157;42.566;27.526;2023-02-05T14:04:22;4.20;;;1.80;;